Strona główna
METAR-TAF:

METAR-TAF

Lotnisko :

Morlaix, Francja

Szerokość geograficzna: 48-36N, Długość geograficzna: 3-49W, wysokość: 84 m

Aktualna obserwacja pogody

Raport powstał 38 minut temu, godzina 16:00 UTC
Wiatr 16 kt od zachód
Temperatura 14°C
Wilgotność 72%
Ciśnienie 1014 hPa
Widzialność 10 km lub więcej
Przerywane chmury na wysokości 2500 ft
Przerywane chmury na wysokości 3200 ft
Zachmurzenie całkowite na wysokości 5600 ft

METAR: LFRU 171600Z AUTO 28016KT 9999 BKN025 BKN032 OVC056 14/09 Q1014

czas: 18:38 (16:38 UTC)


TAF: brakujący

Obserwacja i prognoza pogody dla ponad 4000 lotnisk (raport METAR i TAF).

Dostępne stacje oznaczono żółtymi i czerwonymi punktami na mapie.

Najedź kursorem aby zobaczyć nazwę stacji.

Kliknij aby zobaczyć obserwacje i prognozy pogody.

Aby zmienić mapę: kliknij na zielony przycisk z czarnym krzyżykiem, aby powiększyć; na zielony przycisk z myślnikiem, aby pomniejszyć; na zielone strzałki, aby przejść do map sąsiednich.


METAR-TAF: